Time;durP1;ratioP1;P1;durP2;ratioP2;P2;SDS_P1;SDS_P2;PMS_P1;PMS_P2;Temp;Humidity;BMP_temperature;BMP_pressure;BME280_temperature;BME280_humidity;BME280_pressure;Samples;Min_cycle;Max_cycle;Signal;HPM_P1;HPM_P2
2023/11/20 00:04:58;;;;;;;18.58;2.95;;;11.70;99.90;;;;;;6217023;23;20023;-89
2023/11/20 00:07:32;;;;;;;17.75;3.15;;;11.70;99.90;;;;;;6144228;23;20095;-87
2023/11/20 00:11:15;;;;;;;17.77;3.03;;;11.60;99.90;;;;;;6141317;23;20454;-88
2023/11/20 00:18:13;;;;;;;18.85;2.63;;;11.60;99.90;;;;;;6215621;23;20316;-87
2023/11/20 00:20:41;;;;;;;19.75;3.30;;;11.60;99.90;;;;;;6190826;23;20090;-88
2023/11/20 00:23:13;;;;;;;19.48;3.25;;;11.60;99.90;;;;;;6190846;23;20062;-89
2023/11/20 00:25:54;;;;;;;16.55;2.85;;;11.60;99.90;;;;;;6165907;23;20021;-89
2023/11/20 00:29:34;;;;;;;15.98;2.80;;;11.60;99.90;;;;;;6186149;23;20016;-90
2023/11/20 00:32:26;;;;;;;18.02;3.35;;;11.60;99.90;;;;;;6190611;23;20343;-88
2023/11/20 00:35:16;;;;;;;12.90;2.53;;;11.70;99.90;;;;;;6159777;23;20027;-90
2023/11/20 00:37:47;;;;;;;12.23;2.80;;;11.60;99.90;;;;;;6184498;23;20141;-89
2023/11/20 00:40:17;;;;;;;11.80;2.75;;;11.60;99.90;;;;;;6184419;23;20024;-88
2023/11/20 00:42:45;;;;;;;15.13;3.40;;;11.60;99.90;;;;;;6184410;23;20021;-89
2023/11/20 00:45:15;;;;;;;18.63;3.17;;;11.60;99.90;;;;;;6183233;23;20021;-89
2023/11/20 00:47:45;;;;;;;14.45;2.97;;;11.60;99.90;;;;;;6184662;23;20025;-88
2023/11/20 00:50:18;;;;;;;15.57;2.95;;;11.50;99.90;;;;;;6159873;23;20025;-87
2023/11/20 00:52:49;;;;;;;15.77;4.78;;;11.60;99.90;;;;;;6184480;23;20025;-87
2023/11/20 00:55:19;;;;;;;14.48;3.03;;;11.50;99.90;;;;;;6183884;23;20096;-88
2023/11/20 00:57:46;;;;;;;10.93;3.15;;;11.60;99.90;;;;;;6185654;23;20028;-89
2023/11/20 01:00:27;;;;;;;14.02;3.65;;;11.60;99.90;;;;;;6145580;23;20017;-88
2023/11/20 01:03:11;;;;;;;15.07;3.15;;;11.50;99.90;;;;;;6214051;23;20044;-87
2023/11/20 01:05:39;;;;;;;14.95;2.95;;;11.50;99.90;;;;;;6192184;23;20408;-87
2023/11/20 01:08:15;;;;;;;10.90;2.65;;;11.50;99.90;;;;;;6216848;23;20017;-88
2023/11/20 01:10:45;;;;;;;16.02;4.05;;;11.50;99.90;;;;;;6167557;23;20043;-87
2023/11/20 01:13:16;;;;;;;11.23;2.47;;;11.50;99.90;;;;;;6191841;23;20017;-89
2023/11/20 01:16:00;;;;;;;9.68;2.92;;;11.50;99.90;;;;;;6194572;23;20096;-87
2023/11/20 01:18:35;;;;;;;12.95;3.13;;;11.50;99.90;;;;;;6216669;23;20466;-87
2023/11/20 01:22:14;;;;;;;9.80;2.92;;;11.50;99.90;;;;;;6192294;23;20017;-87
2023/11/20 01:25:46;;;;;;;10.68;2.97;;;11.50;99.90;;;;;;6192261;23;20021;-88
2023/11/20 01:28:13;;;;;;;10.38;3.78;;;11.40;99.90;;;;;;6216743;23;20023;-89
2023/11/20 01:30:40;;;;;;;11.25;3.13;;;11.40;99.90;;;;;;6216693;23;20412;-88
2023/11/20 01:33:10;;;;;;;18.25;4.25;;;11.40;99.90;;;;;;6191999;23;20020;-88
2023/11/20 01:35:47;;;;;;;15.45;3.05;;;11.40;99.90;;;;;;6191712;23;20017;-88
2023/11/20 01:42:38;;;;;;;15.07;3.90;;;11.40;99.90;;;;;;6218309;23;19911;-89
2023/11/20 01:45:27;;;;;;;15.80;3.70;;;11.40;99.90;;;;;;6201371;23;20070;-91
2023/11/20 01:47:57;;;;;;;17.60;3.60;;;11.40;99.90;;;;;;6192083;23;20074;-91
2023/11/20 01:50:33;;;;;;;13.52;3.22;;;11.40;99.90;;;;;;6192830;23;20017;-88
2023/11/20 01:53:12;;;;;;;17.90;3.97;;;11.40;99.90;;;;;;6167883;23;20044;-90
2023/11/20 01:55:39;;;;;;;20.02;4.30;;;11.40;99.90;;;;;;6145004;23;20016;-89
2023/11/20 01:58:15;;;;;;;13.50;3.83;;;11.40;99.90;;;;;;6194792;23;20032;-87
2023/11/20 02:00:42;;;;;;;23.20;4.28;;;11.40;99.90;;;;;;6221758;23;20016;-89
2023/11/20 02:03:11;;;;;;;12.13;3.47;;;11.40;99.90;;;;;;6223514;23;20017;-88
2023/11/20 02:05:38;;;;;;;19.70;3.50;;;11.40;99.90;;;;;;6172441;23;20455;-88
2023/11/20 02:12:41;;;;;;;14.75;2.80;;;11.30;99.90;;;;;;6233029;23;20046;-90
2023/11/20 02:15:13;;;;;;;15.98;2.53;;;11.30;99.90;;;;;;6197558;23;20095;-89
2023/11/20 02:17:47;;;;;;;16.90;3.22;;;11.30;99.90;;;;;;6218785;23;20047;-89
2023/11/20 02:20:46;;;;;;;17.60;3.10;;;11.30;99.90;;;;;;6216090;23;20021;-91
2023/11/20 02:23:20;;;;;;;18.55;3.13;;;11.30;99.90;;;;;;6215679;23;20027;-89
2023/11/20 02:26:34;;;;;;;;;;;;;;;;;;;;;
2023/11/20 02:29:31;;;;;;;15.13;3.00;;;11.30;99.90;;;;;;6217519;23;20466;-90
2023/11/20 02:32:02;;;;;;;15.77;2.85;;;11.20;99.90;;;;;;6192090;23;20012;-90
2023/11/20 02:34:39;;;;;;;11.93;1.63;;;11.20;99.90;;;;;;6168537;23;20108;-89
2023/11/20 02:37:14;;;;;;;13.15;1.60;;;11.20;99.90;;;;;;6216730;23;20440;-90
2023/11/20 02:39:42;;;;;;;12.45;2.25;;;11.20;99.90;;;;;;6191574;23;20020;-89
2023/11/20 02:46:13;;;;;;;11.98;1.95;;;11.20;99.90;;;;;;6130985;23;20025;-86
2023/11/20 02:48:58;;;;;;;12.60;2.37;;;11.10;99.90;;;;;;6133968;23;20049;-87
2023/11/20 02:51:27;;;;;;;13.57;2.25;;;11.10;99.90;;;;;;6130677;23;20084;-87
2023/11/20 02:54:05;;;;;;;10.40;1.73;;;11.10;99.90;;;;;;6108371;23;20096;-87
2023/11/20 02:57:00;;;;;;;10.32;2.17;;;11.10;99.90;;;;;;6132414;23;20444;-87
2023/11/20 03:00:20;;;;;;;16.08;2.38;;;11.10;99.90;;;;;;6130862;23;20021;-87
2023/11/20 03:06:32;;;;;;;12.35;1.63;;;11.00;99.90;;;;;;6190860;23;20048;-87
2023/11/20 03:09:17;;;;;;;14.07;1.60;;;11.00;99.90;;;;;;6146353;23;20024;-87
2023/11/20 03:11:47;;;;;;;11.52;1.45;;;11.00;99.90;;;;;;6191278;23;20066;-88
2023/11/20 03:14:32;;;;;;;11.23;1.60;;;11.00;99.90;;;;;;6186024;23;20020;-88
2023/11/20 03:17:04;;;;;;;;;;;11.00;99.90;;;;;;6191238;23;20059;-87
2023/11/20 03:19:32;;;;;;;12.55;2.35;;;11.00;99.90;;;;;;6190885;23;19916;-87
2023/11/20 03:22:00;;;;;;;10.38;1.80;;;11.00;99.90;;;;;;6215279;23;20027;-87
2023/11/20 03:24:32;;;;;;;8.95;1.98;;;11.00;99.90;;;;;;6141455;23;20027;-87
2023/11/20 03:27:01;;;;;;;12.88;2.17;;;11.00;99.90;;;;;;6215688;23;20021;-88
2023/11/20 03:29:33;;;;;;;12.85;3.20;;;11.00;99.90;;;;;;6216235;23;20024;-88
2023/11/20 03:32:00;;;;;;;10.45;2.35;;;11.00;99.90;;;;;;6167171;23;20028;-87
2023/11/20 03:34:28;;;;;;;11.02;1.90;;;11.00;99.90;;;;;;6191165;23;20103;-88
2023/11/20 03:36:56;;;;;;;10.80;2.25;;;11.00;99.90;;;;;;6190653;23;20051;-88
2023/11/20 03:39:23;;;;;;;13.07;2.47;;;11.00;99.90;;;;;;6190700;23;20019;-88
2023/11/20 03:41:50;;;;;;;12.57;2.42;;;11.00;99.90;;;;;;6215427;23;20017;-87
2023/11/20 03:44:17;;;;;;;7.45;1.52;;;11.00;99.90;;;;;;6190877;23;20059;-87
2023/11/20 03:51:26;;;;;;;12.50;2.22;;;11.00;99.90;;;;;;6190306;23;20059;-85
2023/11/20 03:54:02;;;;;;;10.27;1.83;;;11.00;99.90;;;;;;6213243;23;20076;-84
2023/11/20 03:56:32;;;;;;;10.88;1.75;;;11.00;99.90;;;;;;6215733;23;20047;-85
2023/11/20 03:59:01;;;;;;;14.18;2.67;;;11.00;99.90;;;;;;6166292;23;20032;-85
2023/11/20 04:01:57;;;;;;;19.58;2.45;;;11.00;99.90;;;;;;6166433;23;20036;-85
2023/11/20 04:04:35;;;;;;;12.00;2.03;;;11.00;99.90;;;;;;6180934;23;20020;-85
2023/11/20 04:07:02;;;;;;;13.15;1.92;;;11.00;99.90;;;;;;6165642;23;20024;-85
2023/11/20 04:09:31;;;;;;;7.20;1.48;;;11.00;99.90;;;;;;6141708;23;20450;-85
2023/11/20 04:16:34;;;;;;;14.82;3.05;;;11.00;99.90;;;;;;6216776;23;20375;-85
2023/11/20 04:19:03;;;;;;;13.23;2.42;;;11.00;99.90;;;;;;6141443;23;20068;-84
2023/11/20 04:21:31;;;;;;;10.27;2.47;;;11.00;99.90;;;;;;6165695;23;20443;-85
2023/11/20 04:23:59;;;;;;;16.40;2.38;;;11.00;99.90;;;;;;6215318;23;20024;-85
2023/11/20 04:26:45;;;;;;;27.88;3.50;;;11.00;99.90;;;;;;6215371;23;20019;-86
2023/11/20 04:29:45;;;;;;;13.82;2.25;;;11.00;99.90;;;;;;6165277;23;20016;-84
2023/11/20 04:36:51;;;;;;;14.25;2.25;;;11.00;99.90;;;;;;6155020;23;20023;-85
2023/11/20 04:39:19;;;;;;;11.82;2.55;;;10.90;99.90;;;;;;6129699;23;20028;-84
2023/11/20 04:42:21;;;;;;;;;;;10.90;99.90;;;;;;6177962;23;20017;-86
2023/11/20 04:44:57;;;;;;;17.15;3.20;;;10.90;99.90;;;;;;6178599;23;19920;-85
2023/11/20 04:48:03;;;;;;;11.93;1.85;;;10.90;99.90;;;;;;6179063;23;20371;-85
2023/11/20 04:53:58;;;;;;;16.38;2.03;;;10.90;99.90;;;;;;6154464;23;20000;-85
2023/11/20 04:57:02;;;;;;;16.00;1.80;;;10.90;99.90;;;;;;6110059;23;20082;-85
2023/11/20 04:59:48;;;;;;;10.55;1.33;;;10.90;99.90;;;;;;6092216;23;20029;-84
2023/11/20 05:03:08;;;;;;;12.43;1.88;;;10.90;99.90;;;;;;6095364;23;20022;-86
2023/11/20 05:05:36;;;;;;;15.63;2.53;;;10.90;99.90;;;;;;6095685;23;20077;-87
2023/11/20 05:08:04;;;;;;;12.13;1.70;;;10.90;99.90;;;;;;6120044;23;20022;-85
2023/11/20 05:10:57;;;;;;;11.82;2.08;;;10.90;99.90;;;;;;6091744;23;20049;-85
2023/11/20 05:13:27;;;;;;;8.15;1.42;;;10.90;99.90;;;;;;6120173;23;20027;-85
2023/11/20 05:15:55;;;;;;;6.72;1.13;;;10.90;99.90;;;;;;6095069;23;20074;-85
2023/11/20 05:22:08;;;;;;;15.82;2.03;;;11.00;99.90;;;;;;6119748;23;20026;-86
2023/11/20 05:24:36;;;;;;;14.45;1.80;;;11.00;99.90;;;;;;6095618;23;20038;-87
2023/11/20 05:27:03;;;;;;;9.68;1.60;;;11.00;99.90;;;;;;6119668;23;20448;-85
2023/11/20 05:30:20;;;;;;;12.85;2.08;;;11.00;99.90;;;;;;6125703;23;20397;-87
2023/11/20 05:33:12;;;;;;;8.57;1.63;;;11.00;99.90;;;;;;6167944;23;20013;-85
2023/11/20 05:35:39;;;;;;;15.68;1.63;;;11.00;99.90;;;;;;6189461;23;20103;-85
2023/11/20 05:38:13;;;;;;;13.00;1.60;;;11.00;99.90;;;;;;6165266;23;20439;-85
2023/11/20 05:41:19;;;;;;;13.27;2.08;;;11.00;99.90;;;;;;6190214;23;20044;-86
2023/11/20 05:44:31;;;;;;;9.02;1.38;;;11.10;99.90;;;;;;6214634;23;20017;-85
2023/11/20 05:47:31;;;;;;;13.93;1.55;;;11.00;99.90;;;;;;6215237;23;20055;-85
2023/11/20 05:59:11;;;;;;;11.60;2.15;;;11.00;99.90;;;;;;6214061;23;20028;-86
2023/11/20 06:01:40;;;;;;;10.75;1.33;;;11.00;99.90;;;;;;6167741;23;20502;-86
2023/11/20 06:04:38;;;;;;;15.98;1.85;;;11.00;99.90;;;;;;6173220;23;20016;-85
2023/11/20 06:07:10;;;;;;;10.05;1.58;;;11.00;99.90;;;;;;6114385;23;20106;-86
2023/11/20 06:13:14;;;;;;;12.95;2.08;;;10.90;99.90;;;;;;6103497;23;20343;-87
2023/11/20 06:15:42;;;;;;;16.55;3.38;;;10.90;99.90;;;;;;6102504;23;20346;-85
2023/11/20 06:23:24;;;;;;;9.70;2.08;;;11.00;99.90;;;;;;6218399;23;20063;-86
2023/11/20 06:26:26;;;;;;;14.98;2.15;;;11.00;99.90;;;;;;6217176;23;20098;-86
2023/11/20 06:29:00;;;;;;;12.35;1.90;;;11.00;99.90;;;;;;6216167;23;20028;-85
2023/11/20 06:32:11;;;;;;;12.13;1.65;;;11.00;99.90;;;;;;6215971;23;20025;-87
2023/11/20 06:34:38;;;;;;;11.10;1.77;;;11.00;99.90;;;;;;6191172;23;20075;-86
2023/11/20 06:37:06;;;;;;;10.40;1.42;;;11.00;99.90;;;;;;6167062;23;20103;-86
2023/11/20 06:40:22;;;;;;;9.77;1.65;;;10.90;99.90;;;;;;6191039;23;20016;-87
2023/11/20 06:54:54;;;;;;;13.25;2.35;;;10.90;99.90;;;;;;6216018;23;20070;-90
2023/11/20 07:05:26;;;;;;;10.30;2.03;;;10.90;99.90;;;;;;6181262;23;20100;-87
2023/11/20 07:12:11;;;;;;;9.05;1.92;;;10.80;99.90;;;;;;6183003;23;20088;-85
2023/11/20 07:14:54;;;;;;;14.70;2.10;;;10.80;99.90;;;;;;6166036;23;20033;-86
2023/11/20 07:17:26;;;;;;;7.10;1.67;;;10.70;99.90;;;;;;6134126;23;20047;-85
2023/11/20 07:19:53;;;;;;;11.70;2.28;;;10.70;99.90;;;;;;6157109;23;20103;-86
2023/11/20 07:22:21;;;;;;;13.13;3.10;;;10.60;99.90;;;;;;6134581;23;20075;-87
2023/11/20 07:25:04;;;;;;;10.32;1.52;;;10.60;99.90;;;;;;6161525;23;20025;-88
2023/11/20 07:27:31;;;;;;;14.23;2.03;;;10.50;99.90;;;;;;6133299;23;20340;-83
2023/11/20 07:29:58;;;;;;;14.90;1.83;;;10.50;99.90;;;;;;6155191;23;20026;-85
2023/11/20 07:32:28;;;;;;;16.52;2.92;;;10.50;99.90;;;;;;6155372;23;20029;-87
2023/11/20 07:34:55;;;;;;;15.55;2.85;;;10.50;99.90;;;;;;6155825;23;20056;-84
2023/11/20 07:37:24;;;;;;;10.00;1.38;;;10.50;99.90;;;;;;6130839;23;20056;-84
2023/11/20 07:39:51;;;;;;;14.70;2.67;;;10.40;99.90;;;;;;6130700;23;20025;-82
2023/11/20 07:42:21;;;;;;;10.30;1.50;;;10.50;99.90;;;;;;6106824;23;20124;-85
2023/11/20 07:44:48;;;;;;;11.05;1.20;;;10.50;99.90;;;;;;6155658;23;20072;-84
2023/11/20 07:47:15;;;;;;;14.25;1.98;;;10.50;99.90;;;;;;6130988;23;20440;-85
2023/11/20 07:49:43;;;;;;;10.10;1.60;;;10.50;99.90;;;;;;6155322;23;20017;-84
2023/11/20 07:52:21;;;;;;;12.60;2.10;;;10.50;99.90;;;;;;6111043;23;20073;-84
2023/11/20 07:54:52;;;;;;;8.27;1.20;;;10.50;99.90;;;;;;6179499;23;20052;-81
2023/11/20 07:57:22;;;;;;;9.77;1.50;;;10.50;99.90;;;;;;6131023;23;20028;-83
2023/11/20 07:59:52;;;;;;;14.20;2.38;;;10.50;99.90;;;;;;6168076;23;20113;-84
2023/11/20 08:02:20;;;;;;;9.82;2.22;;;10.50;99.90;;;;;;6184761;23;20017;-83
2023/11/20 08:04:48;;;;;;;14.35;2.03;;;10.50;99.90;;;;;;6185337;23;20503;-83
2023/11/20 08:07:16;;;;;;;20.45;3.45;;;10.60;99.90;;;;;;6184163;23;20143;-83
2023/11/20 08:09:45;;;;;;;13.95;2.25;;;10.60;99.90;;;;;;6184406;23;20017;-83
2023/11/20 08:12:49;;;;;;;12.38;2.25;;;10.60;99.90;;;;;;6188040;23;20047;-87
2023/11/20 08:15:19;;;;;;;10.50;1.73;;;10.60;99.90;;;;;;6190444;23;20017;-83
2023/11/20 08:17:49;;;;;;;13.27;2.25;;;10.60;99.90;;;;;;6184824;23;20017;-88
2023/11/20 08:20:18;;;;;;;11.18;2.17;;;10.70;99.90;;;;;;6186516;23;20024;-85
2023/11/20 08:22:45;;;;;;;12.73;1.83;;;10.70;99.90;;;;;;6161099;23;20426;-85
2023/11/20 08:25:13;;;;;;;17.48;3.08;;;10.70;99.90;;;;;;6185605;23;20025;-86
2023/11/20 08:27:42;;;;;;;14.38;2.58;;;10.60;99.90;;;;;;6186038;23;20021;-85
2023/11/20 08:30:11;;;;;;;8.77;1.48;;;10.60;99.90;;;;;;6185554;23;20055;-86
2023/11/20 08:32:41;;;;;;;15.13;2.58;;;10.60;99.90;;;;;;6184928;23;20112;-87
2023/11/20 08:35:09;;;;;;;13.63;1.67;;;10.70;99.90;;;;;;6185166;23;20021;-86
2023/11/20 08:37:36;;;;;;;10.57;1.30;;;10.70;99.90;;;;;;6185052;23;20017;-86
2023/11/20 08:40:08;;;;;;;18.20;2.00;;;10.80;99.90;;;;;;6184798;23;20068;-86
2023/11/20 08:42:38;;;;;;;12.60;2.25;;;10.80;99.90;;;;;;6210177;23;20024;-87
2023/11/20 08:45:08;;;;;;;10.98;1.98;;;10.80;99.90;;;;;;6185249;23;20017;-86
2023/11/20 08:47:36;;;;;;;10.05;2.28;;;10.80;99.90;;;;;;6185415;23;20017;-86
2023/11/20 08:50:04;;;;;;;10.05;2.03;;;10.80;99.90;;;;;;6185101;23;20044;-87
2023/11/20 08:52:31;;;;;;;10.30;1.95;;;10.80;99.90;;;;;;6210274;23;20021;-86
2023/11/20 08:54:58;;;;;;;14.32;2.20;;;10.90;99.90;;;;;;6209710;23;20025;-86
2023/11/20 08:57:25;;;;;;;13.10;1.25;;;10.90;99.90;;;;;;6210032;23;20021;-87
2023/11/20 08:59:53;;;;;;;10.13;2.20;;;10.80;99.90;;;;;;6210860;23;20104;-86
2023/11/20 09:02:20;;;;;;;15.95;3.25;;;10.90;99.90;;;;;;6185068;23;20021;-87
2023/11/20 09:04:47;;;;;;;11.20;1.83;;;10.90;99.90;;;;;;6185038;23;20021;-86
2023/11/20 09:07:14;;;;;;;13.35;1.80;;;10.90;99.90;;;;;;6185040;23;20171;-86
2023/11/20 09:09:42;;;;;;;12.43;1.75;;;10.90;99.90;;;;;;6209614;23;20021;-86
2023/11/20 09:12:10;;;;;;;13.90;2.42;;;11.00;99.90;;;;;;6184785;23;20056;-86
2023/11/20 09:14:37;;;;;;;14.38;2.60;;;11.10;99.90;;;;;;6184711;23;20044;-86
2023/11/20 09:17:07;;;;;;;9.85;2.20;;;11.10;99.90;;;;;;6185255;23;20096;-86
2023/11/20 09:19:34;;;;;;;13.63;1.77;;;11.10;99.90;;;;;;6211804;23;20076;-85
2023/11/20 09:22:01;;;;;;;18.08;2.70;;;11.20;99.90;;;;;;6162014;23;20482;-85
2023/11/20 09:24:30;;;;;;;17.65;2.35;;;11.20;99.90;;;;;;6187304;23;20021;-86
2023/11/20 09:26:58;;;;;;;13.85;2.38;;;11.20;99.90;;;;;;6162672;23;20463;-85
2023/11/20 09:29:25;;;;;;;15.00;2.92;;;11.30;99.90;;;;;;6186510;23;20021;-85
2023/11/20 09:31:56;;;;;;;14.95;2.40;;;11.30;99.90;;;;;;6186724;23;20103;-85
2023/11/20 09:34:23;;;;;;;17.27;3.38;;;11.30;99.90;;;;;;6186660;23;20075;-85
2023/11/20 09:36:53;;;;;;;16.13;3.38;;;11.30;99.90;;;;;;6187016;23;20071;-85
2023/11/20 09:39:21;;;;;;;18.38;2.17;;;11.30;99.90;;;;;;6211387;23;20109;-85
2023/11/20 09:41:51;;;;;;;16.35;2.40;;;11.30;99.90;;;;;;6186436;23;20017;-86
2023/11/20 09:44:29;;;;;;;15.32;2.45;;;11.30;99.90;;;;;;6186551;23;20028;-86
2023/11/20 09:46:58;;;;;;;14.68;3.03;;;11.30;99.90;;;;;;6187395;23;20036;-85
2023/11/20 09:49:32;;;;;;;9.10;1.95;;;11.30;99.90;;;;;;6163270;23;20021;-86
2023/11/20 09:52:00;;;;;;;15.23;3.42;;;11.30;99.90;;;;;;6211482;23;20392;-88
2023/11/20 09:54:30;;;;;;;11.27;2.13;;;11.30;99.90;;;;;;6212889;23;20436;-87
2023/11/20 09:57:03;;;;;;;13.20;2.10;;;11.40;99.90;;;;;;6192498;23;20024;-87
2023/11/20 09:59:31;;;;;;;13.05;2.33;;;11.40;99.90;;;;;;6199837;23;20020;-85
2023/11/20 10:02:01;;;;;;;16.52;3.78;;;11.40;99.90;;;;;;6196848;23;20055;-86
2023/11/20 10:04:31;;;;;;;11.60;2.45;;;11.50;99.90;;;;;;6188330;23;20017;-87
2023/11/20 10:07:03;;;;;;;10.20;2.35;;;11.50;99.90;;;;;;6187486;23;20028;-87
2023/11/20 10:09:31;;;;;;;13.20;2.97;;;11.40;99.90;;;;;;6187334;23;20108;-85
2023/11/20 10:12:02;;;;;;;14.80;3.28;;;11.30;99.90;;;;;;6186544;23;20268;-85
2023/11/20 10:14:32;;;;;;;17.83;4.80;;;11.20;99.90;;;;;;6186264;23;20049;-85
2023/11/20 10:16:59;;;;;;;24.20;5.00;;;11.20;99.90;;;;;;6211126;23;20072;-85
2023/11/20 10:19:27;;;;;;;16.45;4.43;;;11.10;99.90;;;;;;6161495;23;20021;-85
2023/11/20 10:21:58;;;;;;;14.60;3.50;;;11.10;99.90;;;;;;6186273;23;20024;-84
2023/11/20 10:24:25;;;;;;;19.80;3.97;;;11.10;99.90;;;;;;6186477;23;20028;-85
2023/11/20 10:26:53;;;;;;;15.15;3.80;;;11.20;99.90;;;;;;6161766;23;20032;-86
2023/11/20 10:29:20;;;;;;;14.85;3.92;;;11.20;99.90;;;;;;6185908;23;20033;-85
2023/11/20 10:31:51;;;;;;;15.43;4.85;;;11.20;99.90;;;;;;6210965;23;20035;-85
2023/11/20 10:34:20;;;;;;;19.45;4.97;;;11.30;99.90;;;;;;6210870;23;20091;-85
2023/11/20 10:37:04;;;;;;;18.02;4.80;;;11.30;99.90;;;;;;6210782;23;20336;-87
2023/11/20 10:39:32;;;;;;;16.65;4.93;;;11.30;99.90;;;;;;6185915;23;20017;-87
2023/11/20 10:42:00;;;;;;;19.92;5.30;;;11.30;99.90;;;;;;6186349;23;20021;-87
2023/11/20 10:44:29;;;;;;;21.17;5.15;;;11.30;99.90;;;;;;6186773;23;20017;-87
2023/11/20 10:46:59;;;;;;;16.15;3.92;;;11.20;99.90;;;;;;6186195;23;20463;-88
2023/11/20 10:49:30;;;;;;;19.02;4.70;;;11.20;99.90;;;;;;6185982;23;20029;-85
2023/11/20 10:52:03;;;;;;;16.63;4.75;;;11.20;99.90;;;;;;6185861;23;20031;-85
2023/11/20 10:54:44;;;;;;;16.17;5.20;;;11.20;99.90;;;;;;6186165;23;20021;-86
2023/11/20 10:57:12;;;;;;;16.20;4.85;;;11.30;99.90;;;;;;6210688;23;20440;-85
2023/11/20 10:59:41;;;;;;;13.02;4.50;;;11.30;99.90;;;;;;6185542;23;20021;-84
2023/11/20 11:02:32;;;;;;;20.20;6.95;;;11.40;99.90;;;;;;6161928;23;20063;-92
2023/11/20 11:05:11;;;;;;;19.25;8.02;;;11.50;99.90;;;;;;6164302;23;20457;-92
2023/11/20 11:07:42;;;;;;;17.90;6.50;;;11.60;99.90;;;;;;6211584;23;20040;-90
2023/11/20 11:10:17;;;;;;;18.15;6.22;;;11.60;99.90;;;;;;6161541;23;20072;-92
2023/11/20 11:12:47;;;;;;;13.45;4.97;;;11.70;99.90;;;;;;6186803;23;20017;-91
2023/11/20 11:15:17;;;;;;;19.42;6.32;;;11.70;99.90;;;;;;6162471;23;20321;-90
2023/11/20 11:18:04;;;;;;;20.77;6.57;;;11.80;99.90;;;;;;6211446;23;20027;-92
2023/11/20 11:20:59;;;;;;;17.92;6.68;;;11.70;99.90;;;;;;6162758;23;20067;-91
2023/11/20 11:23:51;;;;;;;15.05;6.30;;;11.70;99.90;;;;;;6161899;23;20025;-91
2023/11/20 11:26:56;;;;;;;22.67;6.78;;;11.60;99.70;;;;;;6164514;23;20452;-92
2023/11/20 11:29:30;;;;;;;16.92;6.03;;;11.40;99.50;;;;;;6195131;23;20024;-91
2023/11/20 11:32:21;;;;;;;18.33;5.70;;;11.30;99.50;;;;;;6165907;23;20100;-89
2023/11/20 11:35:10;;;;;;;15.05;5.07;;;11.20;99.50;;;;;;6208025;23;20025;-91
2023/11/20 11:38:02;;;;;;;13.30;4.50;;;11.20;99.70;;;;;;6209400;23;20017;-91
2023/11/20 11:40:52;;;;;;;11.57;5.07;;;11.40;99.80;;;;;;6209975;23;20021;-94
2023/11/20 11:43:35;;;;;;;15.32;5.20;;;11.50;99.70;;;;;;6186452;23;20013;-91
2023/11/20 11:46:07;;;;;;;11.23;5.35;;;11.60;99.50;;;;;;6162256;23;20021;-92
2023/11/20 11:48:46;;;;;;;9.00;3.85;;;11.70;99.40;;;;;;6208549;23;20031;-90
2023/11/20 11:51:21;;;;;;;10.98;3.80;;;11.80;99.50;;;;;;6186083;23;20024;-91
2023/11/20 11:54:17;;;;;;;13.07;5.10;;;11.90;99.50;;;;;;6161440;23;20025;-92
2023/11/20 11:56:52;;;;;;;13.40;5.53;;;11.90;99.00;;;;;;6180904;23;20021;-91
2023/11/20 11:59:37;;;;;;;13.68;5.20;;;12.00;99.00;;;;;;6214612;23;20031;-93
2023/11/20 12:02:55;;;;;;;12.57;4.00;;;12.00;98.80;;;;;;6196856;23;20020;-89
2023/11/20 12:05:24;;;;;;;15.88;4.43;;;11.90;98.70;;;;;;6166209;23;20040;-86
2023/11/20 12:07:59;;;;;;;12.20;4.78;;;11.90;98.70;;;;;;6166216;23;20091;-88
2023/11/20 12:10:45;;;;;;;12.85;4.18;;;11.80;98.50;;;;;;6167555;23;20103;-91
2023/11/20 12:13:27;;;;;;;12.73;4.30;;;11.80;98.50;;;;;;6166187;23;20462;-89
2023/11/20 12:16:33;;;;;;;13.07;3.60;;;11.70;98.50;;;;;;6141430;23;20107;-89
2023/11/20 12:19:10;;;;;;;12.00;3.70;;;11.70;98.60;;;;;;6191303;23;20016;-90
2023/11/20 12:21:42;;;;;;;10.02;2.88;;;11.80;98.60;;;;;;6165557;23;20025;-86
2023/11/20 12:24:10;;;;;;;8.02;3.70;;;11.70;98.50;;;;;;6165575;23;20020;-89
2023/11/20 12:26:38;;;;;;;9.50;2.20;;;11.80;98.60;;;;;;6190213;23;20020;-88
2023/11/20 12:29:56;;;;;;;14.38;3.08;;;11.80;98.40;;;;;;6215576;23;20020;-89
2023/11/20 12:32:10;;;;;;;11.90;2.75;;;11.90;98.40;;;;;;6185470;23;20024;-87
2023/11/20 12:34:49;;;;;;;7.82;1.98;;;11.90;98.20;;;;;;6164999;23;20024;-89
2023/11/20 12:37:17;;;;;;;10.20;2.13;;;12.10;97.80;;;;;;6215699;23;20021;-88
2023/11/20 12:39:45;;;;;;;10.85;2.97;;;12.10;97.70;;;;;;6190718;23;20020;-90
2023/11/20 12:42:17;;;;;;;9.25;2.45;;;12.30;97.70;;;;;;6191168;23;20351;-90
2023/11/20 12:44:44;;;;;;;11.77;2.60;;;12.30;97.30;;;;;;6166212;23;20474;-90
2023/11/20 12:47:15;;;;;;;15.57;2.97;;;12.30;97.10;;;;;;6190437;23;20079;-90
2023/11/20 12:49:43;;;;;;;12.60;2.75;;;12.20;97.00;;;;;;6190953;23;20406;-90
2023/11/20 12:52:14;;;;;;;15.73;2.15;;;12.10;96.90;;;;;;6190006;23;20021;-90
2023/11/20 12:54:42;;;;;;;14.40;1.90;;;12.00;96.90;;;;;;6215437;23;20025;-90
2023/11/20 12:57:09;;;;;;;9.98;1.92;;;11.90;96.60;;;;;;6190721;23;20087;-89
2023/11/20 12:59:37;;;;;;;7.22;1.65;;;11.90;96.30;;;;;;6190593;23;20040;-89
2023/11/20 13:02:09;;;;;;;7.57;1.75;;;11.80;96.30;;;;;;6142893;23;20021;-89
2023/11/20 13:04:37;;;;;;;7.90;1.50;;;11.80;96.40;;;;;;6192872;23;20017;-91
2023/11/20 13:07:04;;;;;;;7.47;1.20;;;11.70;95.80;;;;;;6191228;23;20021;-88
2023/11/20 13:09:33;;;;;;;8.65;1.40;;;11.70;95.80;;;;;;6215800;23;20078;-88
2023/11/20 13:12:02;;;;;;;10.48;1.38;;;11.70;95.80;;;;;;6190658;23;20074;-89
2023/11/20 13:14:29;;;;;;;6.55;1.15;;;11.60;95.70;;;;;;6215525;23;20075;-89
2023/11/20 13:16:56;;;;;;;5.72;1.33;;;11.70;95.80;;;;;;6190558;23;20013;-89
2023/11/20 13:19:39;;;;;;;8.02;1.15;;;11.80;96.00;;;;;;6214745;23;20017;-88
2023/11/20 13:22:06;;;;;;;6.43;1.00;;;11.90;95.80;;;;;;6190077;23;20021;-89
2023/11/20 13:24:52;;;;;;;4.50;0.82;;;12.00;95.60;;;;;;6190463;23;20104;-89
2023/11/20 13:27:23;;;;;;;5.70;1.42;;;12.10;95.60;;;;;;6166543;23;20020;-89
2023/11/20 13:30:15;;;;;;;5.82;1.27;;;12.20;95.10;;;;;;6190307;23;20027;-88
2023/11/20 13:32:47;;;;;;;12.90;1.83;;;12.30;94.90;;;;;;6165829;23;20047;-89
2023/11/20 13:35:16;;;;;;;11.50;1.60;;;12.30;94.80;;;;;;6165747;23;20099;-86
2023/11/20 13:37:46;;;;;;;7.90;1.33;;;12.40;94.40;;;;;;6214648;23;20016;-87
2023/11/20 13:40:16;;;;;;;6.55;1.50;;;12.30;94.30;;;;;;6214247;23;20025;-87
2023/11/20 13:42:48;;;;;;;7.43;1.48;;;12.20;94.20;;;;;;6190257;23;20016;-88
2023/11/20 13:45:16;;;;;;;8.52;1.90;;;12.20;94.40;;;;;;6192307;23;20074;-88
2023/11/20 13:47:43;;;;;;;13.30;1.55;;;12.10;94.30;;;;;;6172314;23;20074;-88
2023/11/20 13:50:11;;;;;;;8.32;1.33;;;12.00;94.30;;;;;;6202399;23;20021;-88
2023/11/20 13:52:39;;;;;;;5.57;1.38;;;11.90;94.50;;;;;;6149492;23;20021;-87
2023/11/20 13:55:06;;;;;;;7.15;1.45;;;11.80;94.70;;;;;;6217968;23;20128;-89
2023/11/20 13:57:36;;;;;;;6.78;1.35;;;11.70;94.50;;;;;;6193872;23;20035;-89
2023/11/20 14:00:14;;;;;;;8.65;1.23;;;11.70;94.60;;;;;;6215814;23;20021;-88
2023/11/20 14:02:53;;;;;;;5.90;1.40;;;11.60;94.70;;;;;;6165866;23;20020;-88
2023/11/20 14:05:21;;;;;;;8.65;1.50;;;11.70;94.80;;;;;;6191589;23;20043;-86
2023/11/20 14:08:00;;;;;;;7.70;1.52;;;11.60;95.10;;;;;;6192284;23;20498;-88
2023/11/20 14:10:36;;;;;;;7.57;1.35;;;11.60;94.90;;;;;;6192190;23;20119;-87
2023/11/20 14:16:41;;;;;;;5.43;1.73;;;11.60;95.10;;;;;;6186658;23;20523;-86
2023/11/20 14:19:09;;;;;;;6.15;1.23;;;11.60;95.20;;;;;;6166242;23;20028;-87
2023/11/20 14:21:42;;;;;;;4.15;1.45;;;11.60;95.20;;;;;;6192133;23;20099;-91
2023/11/20 14:24:21;;;;;;;9.48;1.52;;;11.60;95.10;;;;;;6191887;23;20095;-90
2023/11/20 14:26:59;;;;;;;4.68;1.38;;;11.60;95.20;;;;;;6168683;23;20027;-89
2023/11/20 14:36:56;;;;;;;7.80;0.93;;;11.50;95.40;;;;;;6183750;23;20059;-91
2023/11/20 14:39:23;;;;;;;4.38;1.00;;;11.50;95.70;;;;;;6217660;23;20021;-93
2023/11/20 14:42:06;;;;;;;8.03;0.97;;;11.40;95.80;;;;;;6192473;23;20346;-88
2023/11/20 14:44:34;;;;;;;8.73;1.75;;;11.40;95.80;;;;;;6191546;23;20404;-87
2023/11/20 14:47:06;;;;;;;4.95;0.70;;;11.40;95.90;;;;;;6216537;23;20016;-88
2023/11/20 14:49:33;;;;;;;3.75;0.95;;;11.30;96.10;;;;;;6191183;23;20111;-87
2023/11/20 14:52:03;;;;;;;5.03;0.90;;;11.30;96.20;;;;;;6191022;23;20317;-85
2023/11/20 14:54:31;;;;;;;5.47;0.95;;;11.20;96.40;;;;;;6191637;23;20021;-88
2023/11/20 14:56:58;;;;;;;5.72;1.42;;;11.20;96.60;;;;;;6191208;23;20097;-88
2023/11/20 14:59:26;;;;;;;4.65;0.82;;;11.10;96.40;;;;;;6166757;23;20439;-88
2023/11/20 15:01:53;;;;;;;7.38;1.10;;;11.10;96.60;;;;;;6166529;23;20040;-87